Time;durP1;ratioP1;P1;durP2;ratioP2;P2;SDS_P1;SDS_P2;PMS_P1;PMS_P2;Temp;Humidity;BMP_temperature;BMP_pressure;BME280_temperature;BME280_humidity;BME280_pressure;Samples;Min_cycle;Max_cycle;Signal;HPM_P1;HPM_P2
2023/10/18 00:06:15;;;;;;;2.17;1.77;;;;;;;17.64;59.48;101306.69;20959034;28;20097;-69
2023/10/18 00:16:17;;;;;;;2.05;1.70;;;;;;;17.61;59.54;101307.81;20958958;28;20450;-69
2023/10/18 00:26:19;;;;;;;2.58;1.90;;;;;;;17.61;59.36;101309.66;20957624;28;20075;-69
2023/10/18 00:36:22;;;;;;;3.38;2.50;;;;;;;17.61;59.23;101304.25;20955587;28;20051;-69
2023/10/18 00:46:25;;;;;;;2.95;2.00;;;;;;;17.59;59.26;101295.44;20955020;28;20101;-69
2023/10/18 00:56:26;;;;;;;2.55;1.92;;;;;;;17.57;59.25;101302.78;20957316;28;20059;-69
2023/10/18 01:06:29;;;;;;;2.65;2.45;;;;;;;17.54;59.20;101271.63;20954876;28;20051;-69
2023/10/18 01:16:35;;;;;;;2.05;1.77;;;;;;;17.53;59.18;101259.13;20954713;28;20057;-69
2023/10/18 01:26:38;;;;;;;;;;;;;;;17.53;59.01;101251.06;20956437;28;20056;-69
2023/10/18 01:36:41;;;;;;;2.30;2.10;;;;;;;17.48;59.07;101245.19;20953290;28;19924;-69
2023/10/18 01:59:40;;;;;;;2.35;1.80;;;;;;;17.45;59.14;101229.28;20963314;28;20032;-69
2023/10/18 02:09:48;;;;;;;2.30;2.10;;;;;;;17.43;59.13;101223.16;20966560;28;20603;-70
2023/10/18 02:19:52;;;;;;;2.55;2.20;;;;;;;17.38;59.22;101208.25;20966070;28;20045;-69
2023/10/18 02:29:54;;;;;;;2.58;2.05;;;;;;;17.36;59.42;101199.44;20966902;28;20056;-69
2023/10/18 02:40:07;;;;;;;2.65;2.30;;;;;;;17.37;59.48;101192.25;20965980;28;20451;-69
2023/10/18 02:50:14;;;;;;;2.60;1.83;;;;;;;17.40;59.41;101184.75;20965345;28;20785;-69
2023/10/18 03:00:17;;;;;;;2.60;2.00;;;;;;;17.46;58.95;101161.88;20965020;28;20650;-69
2023/10/18 03:10:32;;;;;;;2.67;2.20;;;;;;;17.48;58.70;101154.53;20963778;28;20044;-69
2023/10/18 03:20:37;;;;;;;2.60;2.10;;;;;;;17.43;58.79;101137.91;20963188;28;20071;-69
2023/10/18 03:30:45;;;;;;;2.17;1.97;;;;;;;17.50;58.60;101128.34;20960851;28;20128;-69
2023/10/18 03:40:56;;;;;;;2.33;1.88;;;;;;;17.50;58.72;101117.56;20960747;28;20283;-69
2023/10/18 03:51:00;;;;;;;2.53;2.10;;;;;;;17.50;58.77;101103.28;20960829;28;20048;-69
2023/10/18 04:01:02;;;;;;;2.70;2.10;;;;;;;17.54;58.49;101086.72;20958060;28;20433;-69
2023/10/18 04:11:04;;;;;;;2.45;1.92;;;;;;;17.59;58.36;101080.94;20958605;28;20048;-69
2023/10/18 04:21:12;;;;;;;2.00;1.75;;;;;;;17.65;58.10;101064.28;20955613;28;20059;-69
2023/10/18 04:31:14;;;;;;;2.42;2.03;;;;;;;17.66;58.18;101059.72;20956151;28;20049;-69
2023/10/18 04:51:28;;;;;;;2.33;1.80;;;;;;;17.68;57.92;101023.63;20957669;28;20045;-69
2023/10/18 05:01:35;;;;;;;2.40;2.03;;;;;;;17.73;57.78;101009.78;20956654;28;20451;-69
2023/10/18 05:11:46;;;;;;;3.30;1.92;;;;;;;17.75;57.96;101007.81;20956191;28;20576;-69
2023/10/18 05:21:48;;;;;;;2.00;1.80;;;;;;;17.74;57.79;101003.41;20953287;28;20044;-69
2023/10/18 05:32:26;;;;;;;2.13;1.65;;;;;;;17.75;57.54;100988.94;20964348;28;20049;-70
2023/10/18 05:42:13;;;;;;;2.58;2.20;;;;;;;17.76;57.42;100981.72;20969846;28;20044;-69
2023/10/18 06:02:23;;;;;;;2.03;1.80;;;;;;;17.79;57.48;100967.97;20969429;28;20044;-69
2023/10/18 06:12:37;;;;;;;2.20;1.60;;;;;;;17.80;57.15;100964.31;20966763;28;20397;-69
2023/10/18 06:22:39;;;;;;;1.45;1.35;;;;;;;17.81;57.36;100948.03;20967558;28;20072;-69
2023/10/18 06:32:43;;;;;;;2.35;1.77;;;;;;;17.79;57.29;100938.34;20967057;28;20064;-69
2023/10/18 06:42:45;;;;;;;2.17;1.80;;;;;;;17.81;57.19;100926.47;20963333;28;20044;-70
2023/10/18 06:52:52;;;;;;;3.22;2.30;;;;;;;17.74;57.79;100928.00;20836098;28;20045;-69
2023/10/18 07:02:56;;;;;;;1.90;1.55;;;;;;;17.73;58.20;100920.91;20932249;28;20174;-68
2023/10/18 07:13:02;;;;;;;2.00;1.60;;;;;;;17.81;58.63;100918.41;20904409;28;20040;-68
2023/10/18 07:23:04;;;;;;;2.47;1.83;;;;;;;17.87;58.89;100900.81;20879820;28;20493;-69
2023/10/18 07:33:09;;;;;;;2.35;1.95;;;;;;;17.86;60.01;100903.66;20926713;28;20604;-69
2023/10/18 07:43:15;;;;;;;5.68;2.42;;;;;;;17.87;61.00;100894.59;20910323;28;20458;-71
2023/10/18 07:53:20;;;;;;;2.40;1.55;;;;;;;18.06;61.28;100877.69;20840694;28;20493;-71
2023/10/18 08:03:23;;;;;;;1.58;1.40;;;;;;;18.20;61.25;100869.19;20920547;28;20049;-72
2023/10/18 08:13:31;;;;;;;3.17;1.90;;;;;;;18.27;61.35;100853.34;20932694;28;20415;-71
2023/10/18 08:33:36;;;;;;;3.50;1.77;;;;;;;18.45;61.23;100826.53;20845134;28;20036;-68
2023/10/18 08:44:18;;;;;;;1.95;1.75;;;;;;;18.51;61.48;100811.63;20841788;28;20198;-70
2023/10/18 08:54:22;;;;;;;1.88;1.30;;;;;;;18.62;60.79;100798.00;20847255;28;20049;-68
2023/10/18 09:04:28;;;;;;;1.42;1.33;;;;;;;18.75;60.31;100788.75;20850455;28;20512;-69
2023/10/18 09:14:30;;;;;;;2.72;1.63;;;;;;;18.79;59.69;100776.69;20915052;28;20053;-69
2023/10/18 09:24:32;;;;;;;2.60;1.50;;;;;;;18.87;59.80;100778.66;20855379;28;20416;-72
2023/10/18 09:34:35;;;;;;;2.58;1.48;;;;;;;18.88;59.67;100765.00;20859116;28;20732;-69
2023/10/18 09:44:38;;;;;;;1.83;1.35;;;;;;;18.93;59.48;100746.53;20923101;28;20071;-70
2023/10/18 09:54:49;;;;;;;1.65;1.30;;;;;;;18.97;58.83;100733.63;20877508;28;20052;-70
2023/10/18 10:04:55;;;;;;;1.75;1.63;;;;;;;19.02;58.78;100722.44;20858185;28;20052;-70
2023/10/18 10:14:58;;;;;;;2.10;1.48;;;;;;;19.06;58.67;100707.66;20884615;28;20489;-70
2023/10/18 10:25:04;;;;;;;1.90;1.45;;;;;;;19.09;58.74;100670.41;20870297;28;20049;-71
2023/10/18 10:35:27;;;;;;;1.65;1.27;;;;;;;19.26;58.16;100665.22;20869554;28;20136;-69
2023/10/18 10:45:41;;;;;;;1.73;1.30;;;;;;;19.33;57.78;100644.72;20893834;28;20060;-69
2023/10/18 10:55:43;;;;;;;1.92;1.20;;;;;;;19.39;57.72;100616.25;20912948;28;20045;-69
2023/10/18 11:05:45;;;;;;;1.90;1.70;;;;;;;19.43;57.26;100593.34;20868435;28;20073;-64
2023/10/18 11:15:49;;;;;;;2.20;1.50;;;;;;;19.43;57.05;100577.13;20862174;28;20106;-67
2023/10/18 11:25:56;;;;;;;2.60;1.30;;;;;;;19.43;56.81;100558.25;20918454;28;20093;-70
2023/10/18 11:36:02;;;;;;;2.15;1.10;;;;;;;19.50;56.50;100548.53;20926555;28;20131;-72
2023/10/18 11:46:13;;;;;;;2.25;1.40;;;;;;;19.59;56.56;100527.00;20907779;28;20501;-68
2023/10/18 11:56:17;;;;;;;3.97;1.52;;;;;;;19.65;56.96;100494.81;20847064;28;20064;-71
2023/10/18 12:06:21;;;;;;;1.90;1.45;;;;;;;19.68;57.24;100472.03;20838683;28;20048;-71
2023/10/18 12:16:23;;;;;;;2.20;1.40;;;;;;;19.68;57.44;100450.44;20841317;28;20074;-71
2023/10/18 12:26:25;;;;;;;1.63;1.35;;;;;;;19.67;57.16;100429.84;20859614;28;20057;-71
2023/10/18 12:36:33;;;;;;;2.70;1.40;;;;;;;19.63;56.88;100404.16;20852376;28;20053;-72
2023/10/18 12:46:35;;;;;;;1.95;1.40;;;;;;;19.60;56.68;100386.41;20924121;28;20106;-71
2023/10/18 12:56:44;;;;;;;4.07;1.60;;;;;;;19.58;56.61;100366.00;20912665;28;20512;-72
2023/10/18 13:06:46;;;;;;;1.90;1.60;;;;;;;19.57;56.53;100348.94;20860766;28;20417;-72
2023/10/18 13:16:48;;;;;;;1.70;1.27;;;;;;;19.55;56.57;100332.91;20877337;28;20437;-71
2023/10/18 13:26:54;;;;;;;1.63;1.40;;;;;;;19.52;56.56;100308.94;20878527;28;20063;-71
2023/10/18 13:36:56;;;;;;;1.35;1.25;;;;;;;19.56;56.82;100288.72;20827085;28;20599;-71
2023/10/18 13:47:00;;;;;;;1.58;1.27;;;;;;;19.60;57.40;100273.00;20839346;28;20045;-72
2023/10/18 13:57:09;;;;;;;3.05;1.70;;;;;;;19.58;57.35;100256.13;20871334;28;20488;-71
2023/10/18 14:07:11;;;;;;;3.55;1.95;;;;;;;19.53;57.71;100243.16;20848648;28;20056;-70
2023/10/18 14:17:14;;;;;;;2.20;1.50;;;;;;;19.49;57.95;100230.97;20909347;28;20070;-70
2023/10/18 14:27:16;;;;;;;2.20;1.40;;;;;;;19.35;58.17;100189.25;20905695;28;20059;-67
2023/10/18 14:37:22;;;;;;;2.65;1.55;;;;;;;19.43;58.45;100191.13;20886408;28;20716;-70
2023/10/18 14:47:24;;;;;;;2.40;1.60;;;;;;;19.42;58.83;100166.00;20920579;28;20047;-71
2023/10/18 14:57:26;;;;;;;4.22;1.85;;;;;;;19.39;59.91;100146.56;20870454;28;20148;-68
2023/10/18 15:07:28;;;;;;;3.38;2.25;;;;;;;19.39;60.33;100135.78;20915218;28;20132;-65
2023/10/18 15:17:30;;;;;;;3.50;2.45;;;;;;;19.39;62.26;100100.69;20913477;28;20440;-69
2023/10/18 15:27:33;;;;;;;3.40;2.40;;;;;;;19.31;61.68;100090.75;20866826;28;20065;-69
2023/10/18 15:37:35;;;;;;;2.85;2.05;;;;;;;19.25;60.97;100081.44;20822243;28;20045;-70
2023/10/18 15:47:39;;;;;;;2.92;2.03;;;;;;;19.12;60.66;100054.09;20882482;28;20139;-68
2023/10/18 15:57:43;;;;;;;2.90;1.60;;;;;;;19.09;60.84;100035.56;20850485;28;20048;-71
2023/10/18 16:07:45;;;;;;;2.97;1.57;;;;;;;19.04;61.06;100021.72;20875713;28;20052;-72
2023/10/18 16:17:48;;;;;;;1.85;1.48;;;;;;;18.93;61.39;100018.28;20876970;28;20056;-72
2023/10/18 16:27:51;;;;;;;3.08;1.52;;;;;;;18.86;61.75;100006.47;20906384;28;20048;-72
2023/10/18 16:37:53;;;;;;;3.67;1.60;;;;;;;18.80;62.07;100001.72;20920128;28;20052;-72
2023/10/18 16:47:57;;;;;;;2.22;1.77;;;;;;;18.73;62.56;99995.31;20909414;28;20462;-67
2023/10/18 16:57:59;;;;;;;3.53;1.90;;;;;;;18.65;63.37;99964.63;20900223;28;20036;-71
2023/10/18 17:08:01;;;;;;;4.68;2.33;;;;;;;18.54;63.22;99960.38;20912528;28;20053;-72
2023/10/18 17:18:03;;;;;;;3.67;1.95;;;;;;;18.43;62.73;99946.34;20925869;28;20044;-72
2023/10/18 17:28:05;;;;;;;5.95;2.22;;;;;;;18.36;62.91;99933.53;20926789;28;20634;-72
2023/10/18 17:38:10;;;;;;;3.63;2.03;;;;;;;18.29;63.63;99899.31;20932406;28;20055;-71
2023/10/18 17:48:14;;;;;;;5.70;2.00;;;;;;;18.33;63.61;99885.34;20927551;28;20444;-67
2023/10/18 17:58:17;;;;;;;3.03;1.60;;;;;;;18.35;63.41;99877.94;20937867;28;20044;-69
2023/10/18 18:08:23;;;;;;;3.38;2.40;;;;;;;18.34;63.57;99860.09;20855075;28;20045;-70
2023/10/18 18:18:28;;;;;;;2.90;1.80;;;;;;;18.31;64.92;99832.63;20850860;28;20045;-72
2023/10/18 18:28:30;;;;;;;4.30;2.22;;;;;;;18.30;64.88;99817.47;20847812;28;20551;-70
2023/10/18 18:38:31;;;;;;;4.00;2.25;;;;;;;18.21;64.35;99784.31;20874866;28;20544;-64
2023/10/18 18:48:33;;;;;;;4.07;2.05;;;;;;;18.11;64.29;99785.28;20937409;28;20493;-72
2023/10/18 18:58:35;;;;;;;6.03;1.83;;;;;;;18.07;64.10;99761.53;20884816;28;20056;-73
2023/10/18 19:08:37;;;;;;;3.78;1.77;;;;;;;18.03;63.72;99755.63;20874014;28;20049;-72
2023/10/18 19:18:39;;;;;;;2.95;1.92;;;;;;;18.01;62.82;99738.81;20940960;28;20052;-72
2023/10/18 19:28:41;;;;;;;5.22;2.65;;;;;;;18.00;62.48;99720.09;20958394;28;20067;-73
2023/10/18 19:38:47;;;;;;;2.85;1.85;;;;;;;17.96;62.06;99709.66;20878130;28;20052;-72
2023/10/18 19:48:49;;;;;;;3.03;1.95;;;;;;;17.94;61.72;99667.75;20915848;28;20080;-72
2023/10/18 19:58:51;;;;;;;1.90;1.52;;;;;;;17.94;61.69;99652.44;20959991;28;20055;-73
2023/10/18 20:08:53;;;;;;;3.00;1.40;;;;;;;17.94;61.23;99630.03;20959389;28;20052;-74
2023/10/18 20:18:54;;;;;;;3.00;1.75;;;;;;;17.94;60.87;99620.13;20958842;28;20052;-73
2023/10/18 20:28:56;;;;;;;3.03;1.60;;;;;;;17.88;61.14;99601.09;20958117;28;20056;-72
2023/10/18 20:38:58;;;;;;;2.50;1.80;;;;;;;17.82;61.64;99587.31;20957269;28;20052;-73
2023/10/18 20:49:06;;;;;;;2.55;2.00;;;;;;;17.82;61.27;99586.44;20957605;28;20102;-73
2023/10/18 20:59:09;;;;;;;2.95;1.98;;;;;;;17.81;60.78;99564.09;20960442;28;20056;-72
2023/10/18 21:09:14;;;;;;;4.72;2.10;;;;;;;17.81;60.45;99539.00;20973974;28;20576;-73
2023/10/18 21:19:16;;;;;;;;;;;;;;;17.80;60.37;99521.19;20973217;28;20056;-73
2023/10/18 21:29:18;;;;;;;2.63;2.30;;;;;;;17.52;60.33;99465.84;20972329;28;19928;-73
2023/10/18 21:39:24;;;;;;;3.00;2.28;;;;;;;17.77;60.34;99489.22;20970547;28;20132;-73
2023/10/18 21:49:25;;;;;;;2.83;2.25;;;;;;;17.77;60.49;99473.06;20968572;28;20063;-73
2023/10/18 21:59:30;;;;;;;3.30;2.10;;;;;;;17.76;60.66;99448.00;20969867;28;20072;-73
2023/10/18 22:09:32;;;;;;;3.05;2.30;;;;;;;17.76;60.84;99434.56;20968923;28;20060;-73
2023/10/18 22:19:36;;;;;;;3.30;2.20;;;;;;;17.78;60.72;99415.53;20968025;28;20049;-73
2023/10/18 22:29:41;;;;;;;1.88;1.63;;;;;;;17.79;60.74;99396.53;20967751;28;20572;-73
2023/10/18 22:39:43;;;;;;;3.67;2.27;;;;;;;17.77;61.02;99387.78;20966220;28;20132;-72
2023/10/18 22:49:48;;;;;;;2.50;1.88;;;;;;;17.76;61.17;99374.47;20965729;28;20048;-73
2023/10/18 22:59:52;;;;;;;2.30;1.83;;;;;;;17.74;61.34;99349.59;20965581;28;20589;-73
2023/10/18 23:09:57;;;;;;;3.00;2.45;;;;;;;17.64;61.32;99328.25;20964674;28;20052;-73
2023/10/18 23:20:19;;;;;;;2.70;2.35;;;;;;;17.72;61.38;99330.94;20963255;28;20549;-73
2023/10/18 23:30:42;;;;;;;2.53;2.33;;;;;;;17.70;61.69;99300.66;20880325;28;20419;-73
2023/10/18 23:50:53;;;;;;;;;;;;;;;17.69;62.03;99277.47;20961498;28;20625;-73
